Terminal Aerodrome Forecast
Issued by NWS

Home | Current Version | Previous Version | Text Only | Print | Product List | Glossary On
Versions: 1 2 3 4 5 6 7 8 9 10 11 12 13 14 15 16 17 18
000
FTUS41 KCAR 051132
TAFPQI
TAF
KPQI 051132Z 0512/0612 06007KT P6SM -RA SCT025 OVC050
     FM051400 06007KT P6SM OVC025
     FM052100 06008KT P6SM SCT025 OVC045
     FM060200 04008KT P6SM OVC025
     FM060500 01008KT P6SM OVC015
     FM061000 01007KT P6SM BKN030=

USA.gov is the U.S. government's official web portal to all federal, state and local government web resources and services.